createdAt,value
2022-08-14T00:00:29.761Z,18.29
2022-08-14T00:01:26.578Z,18.53
2022-08-14T00:02:31.193Z,18.61
2022-08-14T00:03:31.899Z,18.58
2022-08-14T00:04:35.255Z,18.74
2022-08-14T00:05:35.562Z,18.81
2022-08-14T00:06:32.529Z,18.65
2022-08-14T00:07:29.563Z,18.53
2022-08-14T00:08:45.098Z,18.52
2022-08-14T00:09:55.706Z,18.19
2022-08-14T00:11:00.186Z,18.62
2022-08-14T00:11:58.569Z,18.82
2022-08-14T00:12:56.662Z,18.40
2022-08-14T00:13:54.396Z,18.75
2022-08-14T00:14:54.945Z,18.80
2022-08-14T00:15:52.147Z,18.79
2022-08-14T00:16:50.742Z,18.70
2022-08-14T00:17:53.812Z,18.72
2022-08-14T00:19:05.440Z,18.94
2022-08-14T00:20:08.905Z,18.61
2022-08-14T00:21:11.358Z,18.51
2022-08-14T00:22:08.355Z,18.28
2022-08-14T00:23:16.341Z,18.32
2022-08-14T00:24:14.281Z,18.27
2022-08-14T00:25:20.513Z,18.47
2022-08-14T00:26:21.812Z,18.18
2022-08-14T00:27:20.730Z,18.51
2022-08-14T00:28:17.900Z,18.52
2022-08-14T00:29:15.242Z,18.52
2022-08-14T00:30:17.328Z,18.44
2022-08-14T00:31:14.919Z,18.61
2022-08-14T00:32:51.948Z,18.65
2022-08-14T00:33:51.683Z,18.43
2022-08-14T00:34:48.188Z,18.67
2022-08-14T00:36:37.264Z,18.39
2022-08-14T00:37:05.562Z,18.57
2022-08-14T00:38:02.641Z,18.67
2022-08-14T00:39:06.473Z,18.57
2022-08-14T00:40:19.062Z,18.64
2022-08-14T00:41:23.835Z,18.45
2022-08-14T00:42:56.002Z,18.40
2022-08-14T00:43:41.780Z,18.30
2022-08-14T00:44:40.118Z,18.27
2022-08-14T00:45:39.724Z,17.48
2022-08-14T00:46:38.960Z,17.99
2022-08-14T00:47:37.575Z,18.18
2022-08-14T00:48:41.702Z,18.19
2022-08-14T00:49:43.170Z,18.36
2022-08-14T00:50:40.443Z,18.49
2022-08-14T00:51:38.721Z,18.56
2022-08-14T00:52:38.779Z,18.40
2022-08-14T00:53:39.897Z,18.60
2022-08-14T00:54:41.216Z,18.53
2022-08-14T00:55:40.613Z,18.32
2022-08-14T00:56:39.826Z,18.47
2022-08-14T00:57:38.203Z,18.33
2022-08-14T00:58:44.911Z,18.11
2022-08-14T00:59:42.218Z,18.17
2022-08-14T01:00:47.407Z,17.72
2022-08-14T01:01:48.696Z,17.97
2022-08-14T01:02:46.285Z,18.06
2022-08-14T01:03:53.518Z,17.69
2022-08-14T01:04:55.063Z,18.09
2022-08-14T01:05:53.016Z,18.04
2022-08-14T01:06:52.416Z,18.04
2022-08-14T01:07:57.015Z,18.14
2022-08-14T01:08:59.415Z,18.18
2022-08-14T01:10:01.874Z,18.10
2022-08-14T01:10:59.285Z,18.21
2022-08-14T01:12:02.738Z,18.31
2022-08-14T01:13:01.385Z,18.14
2022-08-14T01:14:00.836Z,17.53
2022-08-14T01:15:00.274Z,18.41
2022-08-14T01:16:03.532Z,18.20
2022-08-14T01:17:00.411Z,18.03
2022-08-14T01:18:16.084Z,18.40
2022-08-14T01:19:36.978Z,18.45
2022-08-14T01:20:52.921Z,18.48
2022-08-14T01:21:53.275Z,18.39
2022-08-14T01:22:51.532Z,18.42
2022-08-14T01:23:51.606Z,18.29
2022-08-14T01:24:51.051Z,18.19
2022-08-14T01:25:51.068Z,18.04
2022-08-14T01:26:50.674Z,18.02
2022-08-14T01:27:56.767Z,17.93
2022-08-14T01:28:58.498Z,18.26
2022-08-14T01:30:03.563Z,18.19
2022-08-14T01:31:02.299Z,18.12
2022-08-14T01:32:01.799Z,18.09
2022-08-14T01:33:02.926Z,18.01
2022-08-14T01:35:17.634Z,17.91
2022-08-14T01:36:03.911Z,18.18
2022-08-14T01:36:39.577Z,17.77
2022-08-14T01:37:38.182Z,18.24
2022-08-14T01:38:48.811Z,18.13
2022-08-14T01:39:45.913Z,18.02
2022-08-14T01:40:42.689Z,18.09
2022-08-14T01:41:43.231Z,18.24
2022-08-14T01:42:42.961Z,18.27
2022-08-14T01:43:56.075Z,18.18
2022-08-14T01:44:55.377Z,17.95
2022-08-14T01:45:58.004Z,17.92
2022-08-14T01:47:16.534Z,17.85
2022-08-14T01:48:20.844Z,17.55
2022-08-14T01:49:17.802Z,17.55
2022-08-14T01:50:18.312Z,17.83
2022-08-14T01:51:26.362Z,17.78
2022-08-14T01:52:57.632Z,17.83
2022-08-14T01:53:42.237Z,17.78
2022-08-14T01:54:39.277Z,17.73
2022-08-14T01:55:36.961Z,17.93
2022-08-14T01:56:42.863Z,17.78
2022-08-14T01:57:56.598Z,17.68
2022-08-14T01:58:58.725Z,17.94
2022-08-14T01:59:57.000Z,17.97
2022-08-14T02:00:56.358Z,17.98
2022-08-14T02:01:59.171Z,17.81
2022-08-14T02:02:58.267Z,17.74
2022-08-14T02:03:57.236Z,17.63
2022-08-14T02:04:57.520Z,17.94
2022-08-14T02:05:58.393Z,18.00
2022-08-14T02:06:55.277Z,18.06
2022-08-14T02:07:55.998Z,17.96
2022-08-14T02:09:17.158Z,18.08
2022-08-14T02:10:19.390Z,17.92
2022-08-14T02:11:25.777Z,18.46
2022-08-14T02:12:26.500Z,18.34
2022-08-14T02:13:26.286Z,18.44
2022-08-14T02:14:31.014Z,18.37
2022-08-14T02:15:28.638Z,18.13
2022-08-14T02:16:29.651Z,18.32
2022-08-14T02:17:28.717Z,18.51
2022-08-14T02:18:32.663Z,18.54
2022-08-14T02:19:32.259Z,18.59
2022-08-14T02:20:33.902Z,18.33
2022-08-14T02:21:43.797Z,18.37
2022-08-14T02:22:47.938Z,18.23
2022-08-14T02:23:53.624Z,18.55
2022-08-14T02:24:51.321Z,18.52
2022-08-14T02:25:54.683Z,18.39
2022-08-14T02:28:18.608Z,18.55
2022-08-14T02:28:23.109Z,18.63
2022-08-14T02:29:59.701Z,18.60
2022-08-14T02:30:47.938Z,18.53
2022-08-14T02:31:55.985Z,18.53
2022-08-14T02:32:55.025Z,18.23
2022-08-14T02:33:56.419Z,17.76
2022-08-14T02:34:53.516Z,18.19
2022-08-14T02:35:53.442Z,18.06
2022-08-14T02:37:06.587Z,18.16
2022-08-14T02:38:04.753Z,17.98
2022-08-14T02:39:01.486Z,17.91
2022-08-14T02:39:58.742Z,17.55
2022-08-14T02:40:55.523Z,18.03
2022-08-14T02:41:58.135Z,18.14
2022-08-14T02:42:57.784Z,18.40
2022-08-14T02:43:54.781Z,18.27
2022-08-14T02:44:57.896Z,18.27
2022-08-14T02:45:54.731Z,18.17
2022-08-14T02:46:53.541Z,18.20
2022-08-14T02:47:58.767Z,18.24
2022-08-14T02:49:02.508Z,17.68
2022-08-14T02:50:01.823Z,18.18
2022-08-14T02:51:01.302Z,18.18
2022-08-14T02:51:58.760Z,17.86
2022-08-14T02:53:14.979Z,17.93
2022-08-14T02:54:13.010Z,17.99
2022-08-14T02:55:10.214Z,17.47
2022-08-14T02:56:30.819Z,17.83
2022-08-14T02:57:40.461Z,17.91
2022-08-14T02:58:41.837Z,17.89
2022-08-14T02:59:43.290Z,17.67
2022-08-14T03:00:40.493Z,17.93
2022-08-14T03:01:50.563Z,17.65
2022-08-14T03:02:58.995Z,17.89
2022-08-14T03:03:56.506Z,17.82
2022-08-14T03:04:54.403Z,17.82
2022-08-14T03:05:54.215Z,17.75
2022-08-14T03:07:06.515Z,17.60
2022-08-14T03:08:07.822Z,17.30
2022-08-14T03:09:05.689Z,18.05
2022-08-14T03:10:27.695Z,17.40
2022-08-14T03:11:22.353Z,17.71
2022-08-14T03:12:30.899Z,17.92
2022-08-14T03:13:29.619Z,17.84
2022-08-14T03:14:27.746Z,17.89
2022-08-14T03:15:24.598Z,17.22
2022-08-14T03:16:26.960Z,17.74
2022-08-14T03:17:24.164Z,17.70
2022-08-14T03:18:32.057Z,17.84
2022-08-14T03:19:29.455Z,17.51
2022-08-14T03:20:30.260Z,17.56
2022-08-14T03:21:31.424Z,17.65
2022-08-14T03:22:31.630Z,17.84
2022-08-14T03:23:28.590Z,17.78
2022-08-14T03:24:25.592Z,17.10
2022-08-14T03:25:23.138Z,17.79
2022-08-14T03:26:30.287Z,17.60
2022-08-14T03:27:35.377Z,17.19
2022-08-14T03:28:48.701Z,17.61
2022-08-14T03:29:45.435Z,17.59
2022-08-14T03:30:42.855Z,17.32
2022-08-14T03:31:42.109Z,17.74
2022-08-14T03:32:40.022Z,17.97
2022-08-14T03:33:40.817Z,18.11
2022-08-14T03:34:47.803Z,17.93
2022-08-14T03:36:05.677Z,17.71
2022-08-14T03:37:51.892Z,18.03
2022-08-14T03:39:15.879Z,18.28
2022-08-14T03:39:44.065Z,18.20
2022-08-14T03:40:42.300Z,17.95
2022-08-14T03:41:40.489Z,18.18
2022-08-14T03:42:39.462Z,17.90
2022-08-14T03:43:36.196Z,18.23
2022-08-14T03:45:28.020Z,18.18
2022-08-14T03:45:52.023Z,18.13
2022-08-14T03:46:54.990Z,18.03
2022-08-14T03:47:56.084Z,18.17
2022-08-14T03:48:55.504Z,18.25
2022-08-14T03:49:52.273Z,17.95
2022-08-14T03:50:53.854Z,18.09
2022-08-14T03:51:53.055Z,18.13
2022-08-14T03:52:55.986Z,18.54
2022-08-14T03:54:00.240Z,18.57
2022-08-14T03:54:57.046Z,18.55
2022-08-14T03:55:59.066Z,18.30
2022-08-14T03:57:02.476Z,18.27
2022-08-14T03:58:00.359Z,18.30
2022-08-14T03:59:02.334Z,18.09
2022-08-14T04:00:02.179Z,18.07
2022-08-14T04:01:02.484Z,17.77
2022-08-14T04:02:01.854Z,18.20
2022-08-14T04:02:59.317Z,18.13
2022-08-14T04:04:06.140Z,17.85
2022-08-14T04:05:12.986Z,18.27
2022-08-14T04:06:10.579Z,18.47
2022-08-14T04:07:11.040Z,18.47
2022-08-14T04:08:29.041Z,18.36
2022-08-14T04:09:28.472Z,18.22
2022-08-14T04:10:31.963Z,18.08
2022-08-14T04:11:29.669Z,18.07
2022-08-14T04:12:26.862Z,18.10
2022-08-14T04:13:24.041Z,18.30
2022-08-14T04:14:20.942Z,18.45
2022-08-14T04:15:21.240Z,18.60
2022-08-14T04:16:23.547Z,18.68
2022-08-14T04:17:20.297Z,18.60
2022-08-14T04:18:19.341Z,18.66
2022-08-14T04:19:20.571Z,18.72
2022-08-14T04:20:25.443Z,18.73
2022-08-14T04:21:28.183Z,18.69
2022-08-14T04:22:25.300Z,18.48
2022-08-14T04:23:23.786Z,18.44
2022-08-14T04:24:30.754Z,18.28
2022-08-14T04:25:36.420Z,18.25
2022-08-14T04:26:42.257Z,18.32
2022-08-14T04:28:01.757Z,18.33
2022-08-14T04:29:06.997Z,18.11
2022-08-14T04:30:12.425Z,18.36
2022-08-14T04:32:58.903Z,18.25
2022-08-14T04:33:00.160Z,18.54
2022-08-14T04:33:57.084Z,18.17
2022-08-14T04:34:54.885Z,18.38
2022-08-14T04:35:56.576Z,18.08
2022-08-14T04:37:12.674Z,18.26
2022-08-14T04:38:36.520Z,18.25
2022-08-14T04:40:10.415Z,18.00
2022-08-14T04:41:30.216Z,18.32
2022-08-14T04:42:47.400Z,18.24
2022-08-14T04:43:48.486Z,18.15
2022-08-14T04:44:51.470Z,18.60
2022-08-14T04:45:53.043Z,18.68
2022-08-14T04:47:08.479Z,17.87
2022-08-14T04:48:36.771Z,18.34
2022-08-14T04:49:38.361Z,18.25
2022-08-14T04:50:54.232Z,18.39
2022-08-14T04:51:56.054Z,18.54
2022-08-14T04:52:53.935Z,18.59
2022-08-14T04:53:53.227Z,18.50
2022-08-14T04:54:49.941Z,18.47
2022-08-14T04:55:51.658Z,18.38
2022-08-14T04:56:48.505Z,18.44
2022-08-14T04:57:47.833Z,18.63
2022-08-14T04:58:47.954Z,18.69
2022-08-14T04:59:44.673Z,18.56
2022-08-14T05:00:41.561Z,18.76
2022-08-14T05:01:49.044Z,18.95
2022-08-14T05:02:47.642Z,19.02
2022-08-14T05:03:44.529Z,18.92
2022-08-14T05:04:45.144Z,18.76
2022-08-14T05:05:58.245Z,19.10
2022-08-14T05:06:55.544Z,19.15
2022-08-14T05:08:01.227Z,19.12
2022-08-14T05:08:59.976Z,18.90
2022-08-14T05:09:57.193Z,18.97
2022-08-14T05:10:57.037Z,19.00
2022-08-14T05:11:54.113Z,19.04
2022-08-14T05:13:14.349Z,18.89
2022-08-14T05:14:17.078Z,18.91
2022-08-14T05:15:29.515Z,19.10
2022-08-14T05:16:31.123Z,19.02
2022-08-14T05:17:34.761Z,18.88
2022-08-14T05:19:17.948Z,18.56
2022-08-14T05:21:10.992Z,18.61
2022-08-14T05:21:57.146Z,19.26
2022-08-14T05:22:31.519Z,19.33
2022-08-14T05:23:31.774Z,18.87
2022-08-14T05:24:29.234Z,19.26
2022-08-14T05:25:31.053Z,19.21
2022-08-14T05:26:31.129Z,19.10
2022-08-14T05:27:31.044Z,19.23
2022-08-14T05:28:31.172Z,19.12
2022-08-14T05:29:29.570Z,18.82
2022-08-14T05:30:27.324Z,19.09
2022-08-14T05:31:24.373Z,18.99
2022-08-14T05:32:36.434Z,18.98
2022-08-14T05:33:35.879Z,18.72
2022-08-14T05:34:32.633Z,18.88
2022-08-14T05:35:30.987Z,18.34
2022-08-14T05:36:30.183Z,19.15
2022-08-14T05:37:29.735Z,19.02
2022-08-14T05:38:35.334Z,19.04
2022-08-14T05:39:32.201Z,19.18
2022-08-14T05:40:28.994Z,18.54
2022-08-14T05:41:43.646Z,19.10
2022-08-14T05:42:42.696Z,18.91
2022-08-14T05:43:51.061Z,19.11
2022-08-14T05:44:48.084Z,19.14
2022-08-14T05:45:46.270Z,19.21
2022-08-14T05:46:43.018Z,19.16
2022-08-14T05:47:41.691Z,19.17
2022-08-14T05:48:42.974Z,19.04
2022-08-14T05:49:40.322Z,18.99
2022-08-14T05:50:38.107Z,19.48
2022-08-14T05:51:34.885Z,19.44
2022-08-14T05:52:39.061Z,19.46
2022-08-14T05:53:36.298Z,19.46
2022-08-14T05:54:39.090Z,19.50
2022-08-14T05:55:36.882Z,19.34
2022-08-14T05:56:41.176Z,19.25
2022-08-14T05:58:01.047Z,19.46
2022-08-14T05:58:57.797Z,19.15
2022-08-14T05:59:57.449Z,19.41
2022-08-14T06:00:57.541Z,19.52
2022-08-14T06:01:54.393Z,19.62
2022-08-14T06:02:52.552Z,19.69
2022-08-14T06:03:49.618Z,19.56
2022-08-14T06:04:51.373Z,18.88
2022-08-14T06:05:51.949Z,19.63
2022-08-14T06:06:48.812Z,19.55
2022-08-14T06:07:45.549Z,19.52
2022-08-14T06:08:42.321Z,19.66
2022-08-14T06:09:40.398Z,19.66
2022-08-14T06:10:37.664Z,19.53
2022-08-14T06:11:34.737Z,19.75
2022-08-14T06:12:56.586Z,19.68
2022-08-14T06:13:50.207Z,19.76
2022-08-14T06:14:48.955Z,19.80
2022-08-14T06:15:46.982Z,19.83
2022-08-14T06:16:45.218Z,19.70
2022-08-14T06:17:47.195Z,19.54
2022-08-14T06:18:55.573Z,19.63
2022-08-14T06:19:56.449Z,19.60
2022-08-14T06:20:54.459Z,19.66
2022-08-14T06:21:58.238Z,19.81
2022-08-14T06:22:56.355Z,19.67
2022-08-14T06:23:53.595Z,19.51
2022-08-14T06:24:50.513Z,19.10
2022-08-14T06:25:52.775Z,19.66
2022-08-14T06:26:54.233Z,19.75
2022-08-14T06:28:03.942Z,19.48
2022-08-14T06:29:00.855Z,19.45
2022-08-14T06:29:58.037Z,19.39
2022-08-14T06:30:55.897Z,19.26
2022-08-14T06:31:54.584Z,19.16
2022-08-14T06:32:57.858Z,19.00
2022-08-14T06:35:02.807Z,19.29
2022-08-14T06:35:14.805Z,18.86
2022-08-14T06:36:13.769Z,19.09
2022-08-14T06:37:17.098Z,19.17
2022-08-14T06:38:23.235Z,18.69
2022-08-14T06:39:36.791Z,19.20
2022-08-14T06:40:36.744Z,19.00
2022-08-14T06:41:57.681Z,19.09
2022-08-14T06:43:00.389Z,19.15
2022-08-14T06:44:00.015Z,19.18
2022-08-14T06:45:01.404Z,19.28
2022-08-14T06:46:01.039Z,19.31
2022-08-14T06:47:03.852Z,19.36
2022-08-14T06:48:01.339Z,18.64
2022-08-14T06:48:58.117Z,19.38
2022-08-14T06:49:58.200Z,19.41
2022-08-14T06:50:57.959Z,19.34
2022-08-14T06:51:55.679Z,19.25
2022-08-14T06:52:52.477Z,19.47
2022-08-14T06:53:49.255Z,19.46
2022-08-14T06:54:46.490Z,18.94
2022-08-14T06:55:57.943Z,19.45
2022-08-14T06:56:57.111Z,19.23
2022-08-14T06:57:54.009Z,19.23
2022-08-14T06:58:51.103Z,19.40
2022-08-14T06:59:48.427Z,18.95
2022-08-14T07:01:05.680Z,18.85
2022-08-14T07:02:20.982Z,19.32
2022-08-14T07:03:37.970Z,19.35
2022-08-14T07:04:54.765Z,19.16
2022-08-14T07:05:57.871Z,19.23
2022-08-14T07:06:59.455Z,19.53
2022-08-14T07:07:58.151Z,19.12
2022-08-14T07:08:55.442Z,19.30
2022-08-14T07:09:52.153Z,19.33
2022-08-14T07:10:53.278Z,19.37
2022-08-14T07:11:52.031Z,19.26
2022-08-14T07:12:56.623Z,19.29
2022-08-14T07:13:59.103Z,19.10
2022-08-14T07:15:01.006Z,19.23
2022-08-14T07:16:00.476Z,19.14
2022-08-14T07:17:02.028Z,19.20
2022-08-14T07:18:01.197Z,19.03
2022-08-14T07:18:58.087Z,19.17
2022-08-14T07:19:55.464Z,19.40
2022-08-14T07:20:54.774Z,19.27
2022-08-14T07:21:52.092Z,18.98
2022-08-14T07:22:56.517Z,19.13
2022-08-14T07:23:53.896Z,19.03
2022-08-14T07:24:50.620Z,19.11
2022-08-14T07:25:48.643Z,19.35
2022-08-14T07:26:48.250Z,19.31
2022-08-14T07:27:45.161Z,19.29
2022-08-14T07:28:43.024Z,19.13
2022-08-14T07:29:40.549Z,18.81
2022-08-14T07:30:37.589Z,18.94
2022-08-14T07:31:38.970Z,19.11
2022-08-14T07:32:35.794Z,19.29
2022-08-14T07:33:35.946Z,19.03
2022-08-14T07:34:40.685Z,18.97
2022-08-14T07:35:57.817Z,19.29
2022-08-14T07:37:00.793Z,18.44
2022-08-14T07:37:58.265Z,19.25
2022-08-14T07:38:56.097Z,19.17
2022-08-14T07:39:52.986Z,19.16
2022-08-14T07:40:53.000Z,19.01
2022-08-14T07:41:50.509Z,18.43
2022-08-14T07:42:47.247Z,19.17
2022-08-14T07:43:55.637Z,18.95
2022-08-14T07:44:52.811Z,18.66
2022-08-14T07:45:53.808Z,19.41
2022-08-14T07:46:50.859Z,19.26
2022-08-14T07:47:47.594Z,19.53
2022-08-14T07:48:44.777Z,19.43
2022-08-14T07:50:02.489Z,19.84
2022-08-14T07:51:03.279Z,20.08
2022-08-14T07:52:08.186Z,20.01
2022-08-14T07:53:06.877Z,20.23
2022-08-14T07:54:11.152Z,20.37
2022-08-14T07:55:09.628Z,20.70
2022-08-14T07:56:21.705Z,20.52
2022-08-14T07:57:24.866Z,20.22
2022-08-14T07:58:34.033Z,20.54
2022-08-14T07:59:41.862Z,20.47
2022-08-14T08:00:40.102Z,20.64
2022-08-14T08:01:48.246Z,20.33
2022-08-14T08:02:55.799Z,20.42
2022-08-14T08:04:00.093Z,20.61
2022-08-14T08:05:00.608Z,20.51
2022-08-14T08:05:58.133Z,20.41
2022-08-14T08:06:55.844Z,20.28
2022-08-14T08:07:54.124Z,20.23
2022-08-14T08:08:58.857Z,19.97
2022-08-14T08:10:01.118Z,19.51
2022-08-14T08:11:03.245Z,19.93
2022-08-14T08:12:09.497Z,19.90
2022-08-14T08:13:17.302Z,19.96
2022-08-14T08:14:17.437Z,20.05
2022-08-14T08:15:15.459Z,20.17
2022-08-14T08:16:13.652Z,20.26
2022-08-14T08:17:12.919Z,20.49
2022-08-14T08:18:20.635Z,20.39
2022-08-14T08:19:26.244Z,19.95
2022-08-14T08:20:41.540Z,19.96
2022-08-14T08:21:48.946Z,20.01
2022-08-14T08:22:47.859Z,20.29
2022-08-14T08:23:51.532Z,20.37
2022-08-14T08:24:50.446Z,20.53
2022-08-14T08:25:50.285Z,20.44
2022-08-14T08:26:50.296Z,20.14
2022-08-14T08:28:08.941Z,20.39
2022-08-14T08:29:28.242Z,20.13
2022-08-14T08:30:27.270Z,20.10
2022-08-14T08:31:29.026Z,20.40
2022-08-14T08:32:41.942Z,20.30
2022-08-14T08:33:39.290Z,19.90
2022-08-14T08:34:49.841Z,19.98
2022-08-14T08:35:50.602Z,20.12
2022-08-14T08:36:47.737Z,20.20
2022-08-14T08:37:45.756Z,20.19
2022-08-14T08:39:14.771Z,20.10
2022-08-14T08:40:03.422Z,20.08
2022-08-14T08:41:01.266Z,20.08
2022-08-14T08:41:58.389Z,20.06
2022-08-14T08:42:55.159Z,20.09
2022-08-14T08:44:05.513Z,20.11
2022-08-14T08:45:02.569Z,20.50
2022-08-14T08:46:02.252Z,20.10
2022-08-14T08:47:01.509Z,20.08
2022-08-14T08:48:00.333Z,20.24
2022-08-14T08:50:00.103Z,20.31
2022-08-14T08:51:03.415Z,20.68
2022-08-14T08:52:05.313Z,20.74
2022-08-14T08:53:05.211Z,20.53
2022-08-14T08:54:11.850Z,20.88
2022-08-14T08:55:15.115Z,20.57
2022-08-14T08:56:11.904Z,20.32
2022-08-14T08:57:27.095Z,20.27
2022-08-14T08:58:25.099Z,20.34
2022-08-14T08:59:31.083Z,20.32
2022-08-14T09:00:34.299Z,19.68
2022-08-14T09:01:32.968Z,20.34
2022-08-14T09:02:29.770Z,20.32
2022-08-14T09:03:30.152Z,20.46
2022-08-14T09:04:28.789Z,20.61
2022-08-14T09:05:26.486Z,20.78
2022-08-14T09:07:00.915Z,21.15
2022-08-14T09:07:39.937Z,21.37
2022-08-14T09:08:38.478Z,21.08
2022-08-14T09:09:54.347Z,20.79
2022-08-14T09:10:56.405Z,21.00
2022-08-14T09:11:55.349Z,21.14
2022-08-14T09:12:52.573Z,21.19
2022-08-14T09:13:52.868Z,21.40
2022-08-14T09:14:53.218Z,21.56
2022-08-14T09:15:50.068Z,21.64
2022-08-14T09:16:50.512Z,21.55
2022-08-14T09:17:47.582Z,20.56
2022-08-14T09:18:46.863Z,21.22
2022-08-14T09:19:46.858Z,21.02
2022-08-14T09:20:49.385Z,21.52
2022-08-14T09:21:46.871Z,21.27
2022-08-14T09:22:47.623Z,21.44
2022-08-14T09:24:26.377Z,21.45
2022-08-14T09:25:07.552Z,21.47
2022-08-14T09:26:05.168Z,21.36
2022-08-14T09:27:22.393Z,21.47
2022-08-14T09:28:20.684Z,21.27
2022-08-14T09:29:23.364Z,21.15
2022-08-14T09:30:32.621Z,21.67
2022-08-14T09:31:42.896Z,21.40
2022-08-14T09:33:11.601Z,21.15
2022-08-14T09:34:30.794Z,21.24
2022-08-14T09:35:56.566Z,21.49
2022-08-14T09:37:33.194Z,21.50
2022-08-14T09:38:50.944Z,21.42
2022-08-14T09:40:24.919Z,21.26
2022-08-14T09:42:21.049Z,21.10
2022-08-14T09:43:41.737Z,21.33
2022-08-14T09:45:16.731Z,21.32
2022-08-14T09:46:17.020Z,20.64
2022-08-14T09:47:18.754Z,21.41
2022-08-14T09:48:18.721Z,21.32
2022-08-14T09:49:16.621Z,21.67
2022-08-14T09:50:16.868Z,21.91
2022-08-14T09:51:25.986Z,21.71
2022-08-14T09:52:33.870Z,22.05
2022-08-14T09:54:19.208Z,22.10
2022-08-14T09:55:02.762Z,22.40
2022-08-14T09:56:01.798Z,22.43
2022-08-14T09:56:59.666Z,21.99
2022-08-14T09:58:19.674Z,22.33
2022-08-14T09:59:22.339Z,22.75
2022-08-14T10:00:44.202Z,22.61
2022-08-14T10:01:41.692Z,22.64
2022-08-14T10:02:45.628Z,21.77
2022-08-14T10:03:52.427Z,21.94
2022-08-14T10:05:10.115Z,21.85
2022-08-14T10:06:11.978Z,21.54
2022-08-14T10:07:10.158Z,21.75
2022-08-14T10:08:26.272Z,22.07
2022-08-14T10:09:24.718Z,22.27
2022-08-14T10:10:39.302Z,22.33
2022-08-14T10:11:38.331Z,22.75
2022-08-14T10:12:44.844Z,22.51
2022-08-14T10:13:52.805Z,22.40
2022-08-14T10:14:53.382Z,22.41
2022-08-14T10:15:51.394Z,22.52
2022-08-14T10:16:52.597Z,22.09
2022-08-14T10:18:17.291Z,22.38
2022-08-14T10:19:16.783Z,22.31
2022-08-14T10:20:39.656Z,22.37
2022-08-14T10:21:58.672Z,22.32
2022-08-14T10:23:11.909Z,22.71
2022-08-14T10:24:11.386Z,22.48
2022-08-14T10:25:17.344Z,22.63
2022-08-14T10:26:22.676Z,22.23
2022-08-14T10:27:26.730Z,22.22
2022-08-14T10:28:51.638Z,21.70
2022-08-14T10:29:51.609Z,22.03
2022-08-14T10:30:54.170Z,21.97
2022-08-14T10:31:59.410Z,22.04
2022-08-14T10:32:56.313Z,22.52
2022-08-14T10:34:12.855Z,22.85
2022-08-14T10:35:14.213Z,22.48
2022-08-14T10:36:19.757Z,22.73
2022-08-14T10:37:39.944Z,22.72
2022-08-14T10:38:37.334Z,22.63
2022-08-14T10:39:36.548Z,22.46
2022-08-14T10:40:44.068Z,22.69
2022-08-14T10:41:59.716Z,22.70
2022-08-14T10:42:58.845Z,22.82
2022-08-14T10:44:20.873Z,22.68
2022-08-14T10:45:21.318Z,22.89
2022-08-14T10:47:36.520Z,22.44
2022-08-14T10:48:07.100Z,22.77
2022-08-14T10:49:06.450Z,22.46
2022-08-14T10:50:04.149Z,22.25
2022-08-14T10:51:01.641Z,22.24
2022-08-14T10:52:08.463Z,22.24
2022-08-14T10:53:05.597Z,22.60
2022-08-14T10:54:16.315Z,22.63
2022-08-14T10:55:19.399Z,22.80
2022-08-14T10:56:21.379Z,22.80
2022-08-14T10:57:30.328Z,22.95
2022-08-14T10:58:34.233Z,22.94
2022-08-14T11:00:01.439Z,22.99
2022-08-14T11:01:01.004Z,23.19
2022-08-14T11:01:59.820Z,23.14
2022-08-14T11:03:15.714Z,23.42
2022-08-14T11:04:30.700Z,23.24
2022-08-14T11:05:40.494Z,23.27
2022-08-14T11:06:38.705Z,23.28
2022-08-14T11:07:40.542Z,23.01
2022-08-14T11:08:40.283Z,23.08
2022-08-14T11:09:41.728Z,23.00
2022-08-14T11:10:54.391Z,22.82
2022-08-14T11:12:33.199Z,23.01
2022-08-14T11:13:21.387Z,22.89
2022-08-14T11:14:22.619Z,22.53
2022-08-14T11:15:23.469Z,22.86
2022-08-14T11:16:21.313Z,23.10
2022-08-14T11:17:21.614Z,22.89
2022-08-14T11:18:20.535Z,22.97
2022-08-14T11:19:27.316Z,22.93
2022-08-14T11:20:29.878Z,22.99
2022-08-14T11:21:30.272Z,22.73
2022-08-14T11:22:55.674Z,23.04
2022-08-14T11:23:53.403Z,23.14
2022-08-14T11:24:55.659Z,23.05
2022-08-14T11:25:53.785Z,23.03
2022-08-14T11:26:51.817Z,22.95
2022-08-14T11:27:54.996Z,22.96
2022-08-14T11:28:53.653Z,23.14
2022-08-14T11:30:00.533Z,23.35
2022-08-14T11:31:13.998Z,23.31
2022-08-14T11:32:10.899Z,23.26
2022-08-14T11:33:09.145Z,22.79
2022-08-14T11:34:10.255Z,22.95
2022-08-14T11:35:26.567Z,23.05
2022-08-14T11:37:02.313Z,23.30
2022-08-14T11:38:06.075Z,23.58
2022-08-14T11:39:04.157Z,23.70
2022-08-14T11:40:16.209Z,23.55
2022-08-14T11:41:17.226Z,23.75
2022-08-14T11:42:57.805Z,23.97
2022-08-14T11:43:57.848Z,23.95
2022-08-14T11:45:04.288Z,23.87
2022-08-14T11:46:03.562Z,24.45
2022-08-14T11:47:06.916Z,24.16
2022-08-14T11:49:03.521Z,23.40
2022-08-14T11:49:42.963Z,23.78
2022-08-14T11:50:40.157Z,23.14
2022-08-14T11:51:52.951Z,23.45
2022-08-14T11:52:53.798Z,22.78
2022-08-14T11:54:05.472Z,23.42
2022-08-14T11:55:02.285Z,23.61
2022-08-14T11:56:04.389Z,23.99
2022-08-14T11:57:05.173Z,24.17
2022-08-14T11:58:08.772Z,24.01
2022-08-14T11:59:10.329Z,24.06
2022-08-14T12:00:14.899Z,23.56
2022-08-14T12:01:16.791Z,24.29
2022-08-14T12:03:00.636Z,24.28
2022-08-14T12:03:46.599Z,24.33
2022-08-14T12:04:53.854Z,24.18
2022-08-14T12:05:51.682Z,24.15
2022-08-14T12:06:53.838Z,24.31
2022-08-14T12:07:50.583Z,24.47
2022-08-14T12:08:52.591Z,24.54
2022-08-14T12:09:56.241Z,24.35
2022-08-14T12:10:57.177Z,24.40
2022-08-14T12:11:54.739Z,24.34
2022-08-14T12:12:56.492Z,24.07
2022-08-14T12:13:56.010Z,24.28
2022-08-14T12:15:00.112Z,24.11
2022-08-14T12:16:11.228Z,24.43
2022-08-14T12:17:17.830Z,24.05
2022-08-14T12:18:34.389Z,24.55
2022-08-14T12:19:33.762Z,24.61
2022-08-14T12:20:36.247Z,24.44
2022-08-14T12:21:33.270Z,23.72
2022-08-14T12:22:40.245Z,23.46
2022-08-14T12:23:40.146Z,23.65
2022-08-14T12:24:40.245Z,23.88
2022-08-14T12:25:37.899Z,23.93
2022-08-14T12:26:40.734Z,24.10
2022-08-14T12:27:53.514Z,23.81
2022-08-14T12:28:59.273Z,24.16
2022-08-14T12:29:57.499Z,24.11
2022-08-14T12:30:56.705Z,23.92
2022-08-14T12:32:04.513Z,23.94
2022-08-14T12:33:04.557Z,24.14
2022-08-14T12:34:10.531Z,23.98
2022-08-14T12:35:09.335Z,24.01
2022-08-14T12:36:11.036Z,24.15
2022-08-14T12:37:12.005Z,24.01
2022-08-14T12:38:21.161Z,23.90
2022-08-14T12:39:21.338Z,23.88
2022-08-14T12:40:24.835Z,23.92
2022-08-14T12:41:24.137Z,23.96
2022-08-14T12:42:38.674Z,23.93
2022-08-14T12:43:51.772Z,23.96
2022-08-14T12:44:48.789Z,24.09
2022-08-14T12:45:51.002Z,24.10
2022-08-14T12:46:49.148Z,24.05
2022-08-14T12:47:46.612Z,23.69
2022-08-14T12:48:50.338Z,23.80
2022-08-14T12:49:54.277Z,23.51
2022-08-14T12:50:54.961Z,23.63
2022-08-14T12:52:00.878Z,23.77
2022-08-14T12:53:13.996Z,23.80
2022-08-14T12:54:26.915Z,24.10
2022-08-14T12:55:32.705Z,24.11
2022-08-14T12:56:42.579Z,23.65
2022-08-14T12:57:49.474Z,24.21
2022-08-14T12:58:58.613Z,23.96
2022-08-14T13:00:22.471Z,24.15
2022-08-14T13:01:31.160Z,23.94
2022-08-14T13:02:29.622Z,24.02
2022-08-14T13:03:28.810Z,23.97
2022-08-14T13:04:25.696Z,23.93
2022-08-14T13:05:30.030Z,23.82
2022-08-14T13:06:27.329Z,23.68
2022-08-14T13:07:32.547Z,23.91
2022-08-14T13:08:33.702Z,23.82
2022-08-14T13:09:36.459Z,23.92
2022-08-14T13:10:46.542Z,23.73
2022-08-14T13:11:49.574Z,23.78
2022-08-14T13:13:15.531Z,24.01
2022-08-14T13:14:18.265Z,23.99
2022-08-14T13:15:19.497Z,23.89
2022-08-14T13:16:20.260Z,23.90
2022-08-14T13:17:18.472Z,23.90
2022-08-14T13:18:17.060Z,23.69
2022-08-14T13:19:18.481Z,23.32
2022-08-14T13:20:23.206Z,23.82
2022-08-14T13:21:21.907Z,23.97
2022-08-14T13:22:32.150Z,23.79
2022-08-14T13:23:36.339Z,23.74
2022-08-14T13:24:35.414Z,23.76
2022-08-14T13:25:32.754Z,23.84
2022-08-14T13:26:33.332Z,23.64
2022-08-14T13:27:33.628Z,23.85
2022-08-14T13:29:01.489Z,23.81
2022-08-14T13:30:04.075Z,23.69
2022-08-14T13:31:11.447Z,23.84
2022-08-14T13:32:11.629Z,22.98
2022-08-14T13:33:14.828Z,23.52
2022-08-14T13:34:20.533Z,23.50
2022-08-14T13:35:18.076Z,23.24
2022-08-14T13:36:24.561Z,23.75
2022-08-14T13:37:34.462Z,23.78
2022-08-14T13:38:31.434Z,23.77
2022-08-14T13:39:29.764Z,23.85
2022-08-14T13:40:29.331Z,23.61
2022-08-14T13:41:31.921Z,23.81